< < Back
Terminal Aerodrome Forecast


Current Version              Previous Versions:   1  2  3  4  5  6  7  8  9  

Terminal Aerodrome Forecast

136
FTUS42 KFFC 240203 AAA
TAFMCN
TAF AMD
KMCN 240203Z 2402/2424 20008G15KT P6SM BKN015 BKN050
     FM240300 20008KT 2SM BR OVC006
     FM241400 24010G15KT P6SM BKN015 OVC030
     FM241600 25010G20KT P6SM SCT035
     FM242300 27007KT P6SM FEW200=

Latest METAR

231
SAUS80 KWBC 230200 RRF
MTRMCN
METAR KMCN 240153Z AUTO 21009G16KT 10SM BKN017 BKN024 18/17 A2977 RMK
AO2 SLP079 T01780172 TSNO


USA.gov is the U.S. government's official web portal to all federal, state and local government web resources and services.